Time;durP1;ratioP1;P1;durP2;ratioP2;P2;SDS_P1;SDS_P2;PMS_P1;PMS_P2;Temp;Humidity;BMP_temperature;BMP_pressure;BME280_temperature;BME280_humidity;BME280_pressure;Samples;Min_cycle;Max_cycle;Signal;HPM_P1;HPM_P2
2022/11/15 00:01:36;;;;;;;16.83;5.80;;;5.70;97.30;;;;;;5062009;28;20175;-86
2022/11/15 00:04:03;;;;;;;7.20;6.27;;;5.60;97.30;;;;;;5057798;28;20171;-87
2022/11/15 00:06:29;;;;;;;9.73;4.30;;;5.60;97.30;;;;;;5053450;28;20443;-88
2022/11/15 00:08:57;;;;;;;6.87;3.80;;;5.50;97.30;;;;;;5057238;28;20496;-85
2022/11/15 00:11:22;;;;;;;19.70;9.73;;;5.50;97.30;;;;;;5053607;28;20567;-88
2022/11/15 00:13:48;;;;;;;11.83;5.40;;;5.50;97.30;;;;;;5052805;28;20544;-88
2022/11/15 00:16:13;;;;;;;3.57;2.90;;;5.50;97.30;;;;;;5052837;28;20261;-87
2022/11/15 00:18:39;;;;;;;12.20;5.97;;;5.60;97.30;;;;;;5048514;28;20667;-89
2022/11/15 00:21:07;;;;;;;8.40;3.30;;;5.60;97.30;;;;;;5044098;28;20219;-85
2022/11/15 00:23:33;;;;;;;3.33;3.13;;;5.60;97.30;;;;;;5071096;28;20232;-88
2022/11/15 00:25:59;;;;;;;4.90;4.40;;;5.70;97.30;;;;;;5052871;28;20413;-88
2022/11/15 00:28:25;;;;;;;3.30;2.93;;;5.80;97.30;;;;;;5039625;28;20497;-87
2022/11/15 00:30:51;;;;;;;10.00;3.93;;;5.80;97.30;;;;;;5041341;28;20238;-86
2022/11/15 00:33:17;;;;;;;12.07;4.30;;;5.80;97.30;;;;;;5051244;28;20448;-88
2022/11/15 00:35:42;;;;;;;12.10;4.80;;;5.90;97.30;;;;;;5041339;28;20192;-86
2022/11/15 00:38:08;;;;;;;4.80;4.50;;;5.90;97.30;;;;;;5065146;28;20180;-87
2022/11/15 00:40:33;;;;;;;8.53;4.60;;;5.90;97.30;;;;;;5044773;28;20739;-88
2022/11/15 00:42:59;;;;;;;5.87;3.53;;;5.90;97.30;;;;;;5052795;28;20159;-86
2022/11/15 00:45:25;;;;;;;6.10;5.23;;;5.90;97.30;;;;;;5052288;28;20660;-88
2022/11/15 00:47:51;;;;;;;3.97;3.77;;;5.90;97.30;;;;;;5052687;28;20265;-86
2022/11/15 00:50:17;;;;;;;13.67;5.70;;;5.90;97.30;;;;;;5052787;28;21006;-88
2022/11/15 00:52:43;;;;;;;4.67;2.63;;;5.90;97.30;;;;;;5039626;28;20445;-86
2022/11/15 00:55:19;;;;;;;7.37;5.13;;;5.90;97.30;;;;;;5059506;28;20489;-86
2022/11/15 00:57:45;;;;;;;4.83;4.33;;;5.90;97.30;;;;;;5052181;28;20479;-87
2022/11/15 01:00:12;;;;;;;8.40;4.73;;;6.00;97.30;;;;;;5070514;28;20728;-87
2022/11/15 01:02:37;;;;;;;12.03;6.27;;;6.00;97.30;;;;;;5046772;28;20426;-85
2022/11/15 01:05:04;;;;;;;10.43;4.47;;;6.00;97.30;;;;;;5046509;28;20534;-88
2022/11/15 01:07:29;;;;;;;3.77;3.57;;;6.00;97.30;;;;;;5046901;28;20313;-88
2022/11/15 01:09:55;;;;;;;3.60;3.33;;;6.10;97.30;;;;;;5045768;28;20563;-85
2022/11/15 01:12:20;;;;;;;3.90;3.67;;;6.10;97.30;;;;;;5048624;28;20558;-85
2022/11/15 01:14:46;;;;;;;8.23;5.80;;;6.10;97.30;;;;;;5052582;28;20705;-88
2022/11/15 01:17:11;;;;;;;6.20;3.43;;;6.10;97.30;;;;;;5054864;28;20520;-85
2022/11/15 01:19:37;;;;;;;10.03;4.37;;;6.10;97.30;;;;;;5051800;28;20322;-86
2022/11/15 01:22:02;;;;;;;4.93;4.30;;;6.10;97.30;;;;;;5055151;28;20190;-87
2022/11/15 01:24:28;;;;;;;7.97;3.40;;;6.10;97.30;;;;;;5047270;28;20183;-86
2022/11/15 01:26:53;;;;;;;14.80;6.63;;;6.10;97.30;;;;;;5054749;28;20182;-86
2022/11/15 01:29:19;;;;;;;3.50;2.60;;;6.00;97.30;;;;;;5054713;28;20199;-86
2022/11/15 01:31:44;;;;;;;3.27;3.10;;;6.00;97.30;;;;;;5054561;28;20204;-88
2022/11/15 01:34:10;;;;;;;4.60;3.37;;;6.00;97.30;;;;;;5072944;28;20241;-86
2022/11/15 01:36:36;;;;;;;5.63;3.83;;;6.00;97.30;;;;;;5049064;28;20435;-86
2022/11/15 01:39:02;;;;;;;2.97;2.77;;;6.00;97.30;;;;;;5047841;28;20183;-85
2022/11/15 01:41:30;;;;;;;2.50;2.30;;;6.00;97.30;;;;;;5054511;28;20417;-86
2022/11/15 01:44:17;;;;;;;7.07;2.93;;;6.00;97.30;;;;;;5054836;28;20179;-88
2022/11/15 01:46:46;;;;;;;2.77;2.57;;;6.00;97.30;;;;;;5061099;28;20453;-89
2022/11/15 01:49:15;;;;;;;4.13;3.90;;;6.00;97.30;;;;;;5041565;28;20461;-86
2022/11/15 01:51:40;;;;;;;6.13;3.23;;;6.00;97.30;;;;;;5054702;28;20439;-85
2022/11/15 01:54:12;;;;;;;2.80;2.60;;;6.00;97.30;;;;;;5054384;28;20456;-86
2022/11/15 01:56:47;;;;;;;14.73;4.90;;;6.00;97.30;;;;;;5054579;28;20183;-86
2022/11/15 01:59:14;;;;;;;7.80;4.07;;;6.10;97.30;;;;;;5054551;28;20413;-85
2022/11/15 02:01:40;;;;;;;2.47;2.30;;;6.10;97.30;;;;;;5054645;28;20417;-88
2022/11/15 02:04:20;;;;;;;11.57;3.53;;;6.10;97.30;;;;;;5054354;28;20459;-86
2022/11/15 02:06:47;;;;;;;3.57;2.60;;;6.10;97.30;;;;;;5054224;28;20508;-89
2022/11/15 02:09:14;;;;;;;6.20;3.83;;;6.10;97.30;;;;;;5072243;28;20419;-86
2022/11/15 02:11:40;;;;;;;3.47;3.30;;;6.10;97.30;;;;;;5053827;28;20623;-88
2022/11/15 02:14:06;;;;;;;8.13;5.07;;;6.10;97.30;;;;;;5054496;28;20910;-86
2022/11/15 02:17:00;;;;;;;5.03;1.83;;;6.10;97.30;;;;;;5053930;28;20253;-88
2022/11/15 02:19:28;;;;;;;6.27;3.37;;;6.10;97.30;;;;;;5053966;28;20455;-88
2022/11/15 02:21:59;;;;;;;2.73;2.53;;;6.10;97.30;;;;;;5072104;28;20428;-86
2022/11/15 02:24:46;;;;;;;1.87;1.77;;;6.10;97.30;;;;;;5054134;28;20417;-88
2022/11/15 02:27:47;;;;;;;2.03;1.93;;;6.10;97.30;;;;;;5041982;28;20406;-88
2022/11/15 02:30:29;;;;;;;11.57;3.87;;;6.20;97.30;;;;;;5053831;28;20436;-87
2022/11/15 02:33:01;;;;;;;9.10;4.20;;;6.20;97.30;;;;;;5054057;28;20475;-85
2022/11/15 02:35:40;;;;;;;2.77;2.20;;;6.20;97.30;;;;;;5053756;28;20461;-87
2022/11/15 02:38:25;;;;;;;1.83;1.73;;;6.20;97.30;;;;;;5053960;28;20508;-86
2022/11/15 02:41:01;;;;;;;4.57;2.40;;;6.20;97.30;;;;;;5071603;28;20935;-87
2022/11/15 02:44:02;;;;;;;4.80;3.20;;;6.20;97.30;;;;;;5044515;28;20469;-88
2022/11/15 02:49:30;;;;;;;3.13;2.03;;;6.10;97.30;;;;;;5069287;28;20433;-88
2022/11/15 02:51:56;;;;;;;6.10;3.00;;;6.00;97.30;;;;;;5052684;28;20414;-88
2022/11/15 02:54:24;;;;;;;13.10;4.53;;;5.90;97.30;;;;;;5053460;28;20486;-89
2022/11/15 02:56:54;;;;;;;3.33;2.90;;;5.80;97.30;;;;;;5053775;28;20680;-88
2022/11/15 02:59:20;;;;;;;4.20;2.40;;;5.80;97.30;;;;;;5053096;28;20448;-89
2022/11/15 03:01:51;;;;;;;4.60;2.60;;;5.70;97.30;;;;;;5049228;28;20776;-88
2022/11/15 03:04:16;;;;;;;3.23;3.03;;;5.60;97.30;;;;;;5053316;28;20262;-89
2022/11/15 03:06:46;;;;;;;3.97;2.77;;;5.50;97.30;;;;;;5053076;28;20999;-89
2022/11/15 03:09:33;;;;;;;4.73;3.77;;;5.40;97.30;;;;;;5053093;28;20209;-88
2022/11/15 03:12:07;;;;;;;3.27;3.07;;;5.20;97.30;;;;;;5052808;28;20428;-88
2022/11/15 03:14:47;;;;;;;13.10;3.30;;;5.10;97.30;;;;;;5070905;28;20475;-88
2022/11/15 03:17:27;;;;;;;5.13;2.30;;;5.00;97.30;;;;;;5053109;28;20515;-88
2022/11/15 03:20:01;;;;;;;3.33;2.87;;;5.00;97.30;;;;;;5038786;28;20531;-88
2022/11/15 03:22:30;;;;;;;7.43;3.20;;;5.00;97.30;;;;;;5049163;28;21106;-89
2022/11/15 03:25:03;;;;;;;1.40;1.30;;;5.10;97.30;;;;;;5050793;28;20537;-87
2022/11/15 03:27:35;;;;;;;2.33;2.17;;;5.10;97.30;;;;;;5049334;28;20418;-89
2022/11/15 03:30:05;;;;;;;3.53;2.77;;;5.20;97.30;;;;;;5049432;28;20442;-88
2022/11/15 03:32:37;;;;;;;4.97;3.63;;;5.20;97.30;;;;;;5049246;28;20498;-88
2022/11/15 03:35:06;;;;;;;2.07;1.93;;;5.30;97.30;;;;;;5049507;28;20453;-87
2022/11/15 03:37:45;;;;;;;11.03;5.47;;;5.30;97.30;;;;;;5036513;28;20505;-88
2022/11/15 03:40:12;;;;;;;3.10;2.97;;;5.30;97.30;;;;;;5049100;28;20445;-88
2022/11/15 03:42:59;;;;;;;2.80;2.60;;;5.40;97.30;;;;;;5049213;28;20468;-88
2022/11/15 03:45:35;;;;;;;17.90;3.30;;;5.50;97.30;;;;;;5043647;28;20419;-88
2022/11/15 03:48:12;;;;;;;2.67;2.47;;;5.60;97.30;;;;;;5042654;28;20422;-88
2022/11/15 03:50:38;;;;;;;1.60;1.50;;;5.60;97.30;;;;;;5039352;28;20805;-88
2022/11/15 03:53:04;;;;;;;4.40;2.73;;;5.60;97.30;;;;;;5047886;28;20445;-88
2022/11/15 03:55:32;;;;;;;4.10;2.90;;;5.70;97.30;;;;;;5041373;28;20447;-88
2022/11/15 03:57:59;;;;;;;4.53;3.97;;;5.70;97.30;;;;;;5043701;28;20218;-88
2022/11/15 04:00:25;;;;;;;8.87;5.33;;;5.70;97.30;;;;;;5048752;28;20561;-89
2022/11/15 04:02:50;;;;;;;2.10;1.57;;;5.60;97.30;;;;;;5048619;28;20422;-88
2022/11/15 04:05:16;;;;;;;8.77;4.60;;;5.60;97.30;;;;;;5048904;28;20186;-88
2022/11/15 04:07:41;;;;;;;15.33;5.97;;;5.50;97.30;;;;;;5047171;28;20673;-88
2022/11/15 04:10:10;;;;;;;9.17;4.07;;;5.40;97.30;;;;;;5037411;28;20203;-88
2022/11/15 04:12:40;;;;;;;3.03;2.00;;;5.40;97.30;;;;;;5048590;28;20183;-88
2022/11/15 04:15:09;;;;;;;2.13;2.00;;;5.30;97.30;;;;;;5049763;28;20474;-88
2022/11/15 04:17:38;;;;;;;3.53;2.27;;;5.20;97.30;;;;;;5048486;28;20502;-88
2022/11/15 04:25:37;;;;;;;2.43;2.23;;;5.20;97.30;;;;;;5068227;28;20818;-85
2022/11/15 04:28:02;;;;;;;7.73;3.37;;;5.20;97.30;;;;;;5065597;28;20417;-86
2022/11/15 04:30:28;;;;;;;5.20;2.87;;;5.20;97.30;;;;;;5080963;28;20181;-86
2022/11/15 04:32:53;;;;;;;8.00;5.27;;;5.20;97.30;;;;;;5063221;28;20206;-86
2022/11/15 04:35:19;;;;;;;5.07;3.53;;;5.30;97.30;;;;;;5067150;28;20638;-86
2022/11/15 04:37:45;;;;;;;1.77;1.73;;;5.20;97.30;;;;;;5063473;28;20677;-87
2022/11/15 04:40:11;;;;;;;8.43;2.80;;;5.20;97.30;;;;;;5067517;28;20188;-86
2022/11/15 04:42:36;;;;;;;2.60;2.40;;;5.30;97.30;;;;;;5071769;28;20840;-85
2022/11/15 04:45:02;;;;;;;6.60;2.77;;;5.40;97.30;;;;;;5071944;28;20330;-86
2022/11/15 04:47:29;;;;;;;4.63;4.10;;;5.40;97.30;;;;;;5058830;28;20178;-86
2022/11/15 04:49:54;;;;;;;4.27;3.37;;;5.40;97.30;;;;;;5073144;28;20182;-86
2022/11/15 04:52:20;;;;;;;4.00;2.20;;;5.30;97.30;;;;;;5072081;28;20810;-85
2022/11/15 04:54:46;;;;;;;2.97;2.70;;;5.40;97.30;;;;;;5061136;28;20652;-86
2022/11/15 04:57:11;;;;;;;2.10;1.83;;;5.50;97.30;;;;;;5071000;28;20182;-86
2022/11/15 04:59:37;;;;;;;3.00;1.50;;;5.40;97.30;;;;;;5059303;28;20182;-85
2022/11/15 05:02:02;;;;;;;3.00;2.80;;;5.30;97.30;;;;;;5056663;28;20210;-86
2022/11/15 05:04:28;;;;;;;5.70;2.70;;;5.20;97.30;;;;;;5057226;28;20198;-86
2022/11/15 05:06:53;;;;;;;2.00;1.87;;;5.20;97.30;;;;;;5066175;28;20186;-84
2022/11/15 05:09:20;;;;;;;4.50;3.73;;;5.40;97.30;;;;;;5043704;28;20342;-86
2022/11/15 05:11:46;;;;;;;1.90;1.80;;;5.40;97.30;;;;;;5056364;28;20241;-85
2022/11/15 05:14:12;;;;;;;3.33;2.60;;;5.40;97.30;;;;;;5057277;28;20457;-86
2022/11/15 05:16:38;;;;;;;5.53;2.60;;;5.50;97.30;;;;;;5055586;28;20436;-86
2022/11/15 05:19:04;;;;;;;4.30;2.90;;;5.60;97.30;;;;;;5056331;28;20425;-86
2022/11/15 05:21:30;;;;;;;4.50;2.90;;;5.70;97.30;;;;;;5085667;28;20226;-86
2022/11/15 05:23:55;;;;;;;3.13;1.50;;;5.80;97.30;;;;;;5075255;28;20452;-86
2022/11/15 05:26:21;;;;;;;5.37;3.00;;;5.90;97.30;;;;;;5093932;28;20196;-85
2022/11/15 05:28:46;;;;;;;2.77;2.57;;;6.00;97.30;;;;;;5074553;28;20183;-87
2022/11/15 05:31:14;;;;;;;4.77;3.70;;;6.00;97.30;;;;;;5055800;28;20800;-87
2022/11/15 05:33:42;;;;;;;3.77;2.97;;;6.10;97.30;;;;;;5072478;28;20236;-86
2022/11/15 05:36:16;;;;;;;3.70;2.73;;;6.10;97.30;;;;;;5066464;28;20421;-85
2022/11/15 05:38:42;;;;;;;2.70;2.50;;;6.10;97.30;;;;;;5086399;28;20408;-86
2022/11/15 05:41:08;;;;;;;6.40;3.37;;;6.20;97.30;;;;;;5069951;28;20500;-86
2022/11/15 05:43:36;;;;;;;5.23;3.63;;;6.20;97.30;;;;;;5069785;28;20500;-86
2022/11/15 05:46:03;;;;;;;5.27;3.40;;;6.20;97.30;;;;;;5065675;28;20405;-86
2022/11/15 05:48:28;;;;;;;4.10;2.80;;;6.30;97.30;;;;;;5068671;28;20415;-86
2022/11/15 05:50:54;;;;;;;3.27;3.07;;;6.30;97.30;;;;;;5075256;28;20409;-86
2022/11/15 05:53:22;;;;;;;2.23;2.07;;;6.30;97.30;;;;;;5063858;28;20293;-86
2022/11/15 05:55:48;;;;;;;3.77;3.57;;;6.30;97.30;;;;;;5055139;28;20488;-86
2022/11/15 05:58:14;;;;;;;5.53;2.13;;;6.30;97.30;;;;;;5086433;28;20945;-88
2022/11/15 06:00:40;;;;;;;4.40;2.63;;;6.20;97.30;;;;;;5069104;28;20190;-86
2022/11/15 06:03:05;;;;;;;3.50;3.30;;;6.20;97.30;;;;;;5084555;28;20277;-85
2022/11/15 06:05:31;;;;;;;3.37;2.50;;;6.10;97.30;;;;;;5085026;28;20297;-87
2022/11/15 06:07:59;;;;;;;2.07;1.90;;;6.10;97.30;;;;;;5070904;28;20605;-86
2022/11/15 06:10:25;;;;;;;10.23;2.43;;;6.10;97.30;;;;;;5060989;28;20179;-86
2022/11/15 06:13:02;;;;;;;3.27;2.97;;;6.00;97.30;;;;;;5067634;28;20444;-86
2022/11/15 06:15:28;;;;;;;2.90;2.50;;;6.00;97.30;;;;;;5048289;28;20213;-86
2022/11/15 06:17:57;;;;;;;1.47;1.10;;;5.90;97.30;;;;;;5064219;28;20419;-86
2022/11/15 06:20:45;;;;;;;;;;;;;;;;;;;;;
2022/11/15 06:23:11;;;;;;;2.77;2.27;;;5.70;97.30;;;;;;5062111;28;20460;-86
2022/11/15 06:25:37;;;;;;;2.00;1.73;;;5.70;97.30;;;;;;5051358;28;20432;-86
2022/11/15 06:28:10;;;;;;;8.13;2.87;;;5.70;97.30;;;;;;5042349;28;20189;-86
2022/11/15 06:30:35;;;;;;;2.37;2.17;;;5.60;97.30;;;;;;5070344;28;20190;-86
2022/11/15 06:33:12;;;;;;;5.13;4.00;;;5.60;97.30;;;;;;5042280;28;20529;-86
2022/11/15 06:35:37;;;;;;;6.33;5.23;;;5.60;97.30;;;;;;5048231;28;20210;-86
2022/11/15 06:38:06;;;;;;;5.37;2.13;;;5.60;97.30;;;;;;5061482;28;20416;-85
2022/11/15 06:40:34;;;;;;;2.80;2.60;;;5.60;97.30;;;;;;5079862;28;20732;-86
2022/11/15 06:42:59;;;;;;;5.20;4.17;;;5.60;97.30;;;;;;5071786;28;20512;-86
2022/11/15 06:45:25;;;;;;;3.37;3.00;;;5.60;97.30;;;;;;5085507;28;20967;-87
2022/11/15 06:47:51;;;;;;;3.47;3.27;;;5.60;97.30;;;;;;5048594;28;20668;-88
2022/11/15 06:50:17;;;;;;;1.63;1.57;;;5.60;97.30;;;;;;5045956;28;20426;-86
2022/11/15 06:52:42;;;;;;;8.73;2.03;;;5.60;97.30;;;;;;5051711;28;20268;-86
2022/11/15 06:55:08;;;;;;;1.97;1.53;;;5.60;97.30;;;;;;5063238;28;20226;-86
2022/11/15 06:57:34;;;;;;;2.63;2.43;;;5.60;97.30;;;;;;5050882;28;20731;-89
2022/11/15 06:59:59;;;;;;;1.83;1.70;;;5.60;97.30;;;;;;5046946;28;20418;-86
2022/11/15 07:02:25;;;;;;;2.23;2.07;;;5.50;97.30;;;;;;5048473;28;20209;-87
2022/11/15 07:04:51;;;;;;;3.47;3.27;;;5.50;97.30;;;;;;5048606;28;20187;-86
2022/11/15 07:07:16;;;;;;;2.40;2.20;;;5.50;97.30;;;;;;5058060;28;20185;-86
2022/11/15 07:09:44;;;;;;;3.33;2.47;;;5.50;97.30;;;;;;5058491;28;20186;-87
2022/11/15 07:12:09;;;;;;;3.20;2.80;;;5.50;97.30;;;;;;5066833;28;20205;-86
2022/11/15 07:14:35;;;;;;;1.73;1.63;;;5.50;97.30;;;;;;5064177;28;20538;-87
2022/11/15 07:17:03;;;;;;;5.13;2.47;;;5.50;97.30;;;;;;5082514;28;20179;-87
2022/11/15 07:19:29;;;;;;;9.07;5.13;;;5.50;97.30;;;;;;5065785;28;20712;-86
2022/11/15 07:21:54;;;;;;;4.90;2.20;;;5.50;97.30;;;;;;5067558;28;20460;-86
2022/11/15 07:24:20;;;;;;;2.57;2.10;;;5.50;97.30;;;;;;5073339;28;20208;-86
2022/11/15 07:26:45;;;;;;;8.83;2.47;;;5.60;97.30;;;;;;5069601;28;20218;-87
2022/11/15 07:29:11;;;;;;;4.53;2.70;;;5.60;97.30;;;;;;5052663;28;20183;-86
2022/11/15 07:31:37;;;;;;;5.10;1.90;;;5.60;97.30;;;;;;5051578;28;20252;-86
2022/11/15 07:34:03;;;;;;;2.53;2.33;;;5.70;97.30;;;;;;5065746;28;20210;-87
2022/11/15 07:36:29;;;;;;;8.10;4.10;;;5.80;97.30;;;;;;5038920;28;20498;-84
2022/11/15 07:38:54;;;;;;;4.57;2.70;;;6.00;97.30;;;;;;5078079;28;20179;-87
2022/11/15 07:41:20;;;;;;;6.10;3.30;;;6.20;97.30;;;;;;5052196;28;20243;-86
2022/11/15 07:43:45;;;;;;;4.30;3.53;;;6.30;97.30;;;;;;5069331;28;20241;-86
2022/11/15 07:46:11;;;;;;;3.13;2.90;;;6.50;97.30;;;;;;5073711;28;20166;-83
2022/11/15 07:49:31;;;;;;;;;;;;;;;;;;;;;
2022/11/15 07:56:31;;;;;;;2.20;1.70;;;6.90;97.30;;;;;;5100694;28;20545;-84
2022/11/15 07:59:11;;;;;;;7.60;5.07;;;7.20;97.30;;;;;;5044704;28;20422;-84
2022/11/15 08:07:01;;;;;;;3.83;2.30;;;7.60;97.30;;;;;;5009812;28;20530;-84
2022/11/15 08:09:30;;;;;;;4.30;3.80;;;7.70;97.30;;;;;;4999596;28;20420;-87
2022/11/15 08:12:14;;;;;;;;;;;;;;;;;;;;;
2022/11/15 08:14:40;;;;;;;3.10;2.90;;;7.90;97.30;;;;;;5045897;28;20462;-86
2022/11/15 08:17:11;;;;;;;6.63;3.20;;;8.00;97.30;;;;;;5051789;28;20867;-83
2022/11/15 08:19:40;;;;;;;3.40;3.23;;;8.10;97.30;;;;;;5039255;28;20176;-85
2022/11/15 08:25:19;;;;;;;1.70;1.60;;;8.20;97.30;;;;;;5037600;28;20796;-85
2022/11/15 08:28:04;;;;;;;4.33;3.50;;;8.30;97.30;;;;;;5031417;28;20967;-86
2022/11/15 08:30:30;;;;;;;2.60;2.40;;;8.40;97.30;;;;;;5031433;28;20179;-85
2022/11/15 08:33:01;;;;;;;3.40;3.20;;;8.50;97.30;;;;;;5068419;22;20602;-86
2022/11/15 08:35:29;;;;;;;5.50;3.43;;;8.70;97.30;;;;;;5089466;28;20452;-85
2022/11/15 08:38:31;;;;;;;4.03;3.30;;;8.80;97.30;;;;;;5068418;28;20477;-85
2022/11/15 08:41:40;;;;;;;3.97;1.53;;;8.90;97.30;;;;;;5062458;28;20416;-85
2022/11/15 08:44:11;;;;;;;3.37;2.73;;;9.10;97.30;;;;;;5070650;28;20421;-82
2022/11/15 08:46:39;;;;;;;4.40;2.23;;;9.20;97.30;;;;;;5056837;28;20453;-85
2022/11/15 08:49:20;;;;;;;6.00;3.93;;;9.40;97.30;;;;;;5048852;28;20452;-86
2022/11/15 08:51:51;;;;;;;2.90;2.73;;;9.50;97.30;;;;;;5069843;28;20440;-86
2022/11/15 08:54:41;;;;;;;2.30;2.10;;;9.60;97.30;;;;;;5078995;28;20981;-84
2022/11/15 08:57:19;;;;;;;2.70;1.90;;;9.80;97.30;;;;;;5035933;28;20484;-86
2022/11/15 08:59:51;;;;;;;1.90;1.80;;;10.00;97.30;;;;;;5059222;28;20504;-85
2022/11/15 09:02:20;;;;;;;4.00;2.17;;;10.10;97.30;;;;;;5049547;28;20448;-85
2022/11/15 09:05:10;;;;;;;3.93;2.80;;;10.20;97.30;;;;;;5044686;28;21050;-85
2022/11/15 09:07:59;;;;;;;4.27;3.57;;;10.30;97.30;;;;;;5065235;28;20419;-86
2022/11/15 09:11:12;;;;;;;2.57;2.33;;;10.50;97.30;;;;;;5040128;28;20432;-86
2022/11/15 09:13:40;;;;;;;4.40;2.43;;;10.60;97.30;;;;;;5032050;28;20441;-84
2022/11/15 09:16:12;;;;;;;2.23;2.07;;;10.70;97.30;;;;;;5051842;28;20947;-86
2022/11/15 09:18:41;;;;;;;2.37;2.17;;;10.90;97.30;;;;;;5058994;28;20430;-85
2022/11/15 09:21:10;;;;;;;1.93;1.60;;;11.00;97.30;;;;;;5060262;28;20515;-85
2022/11/15 09:23:49;;;;;;;2.00;1.50;;;11.10;97.30;;;;;;5051591;28;20432;-87
2022/11/15 09:26:21;;;;;;;2.80;1.90;;;11.20;97.30;;;;;;5051020;28;20421;-89
2022/11/15 09:29:01;;;;;;;4.13;2.87;;;11.30;97.30;;;;;;5065048;28;20422;-89
2022/11/15 09:34:30;;;;;;;3.43;1.97;;;11.40;97.30;;;;;;5053234;28;20486;-87
2022/11/15 09:37:01;;;;;;;2.37;2.23;;;11.50;97.30;;;;;;5047797;28;20416;-87
2022/11/15 09:39:30;;;;;;;4.70;2.47;;;11.70;97.30;;;;;;5072211;28;20416;-88
2022/11/15 09:42:40;;;;;;;5.00;3.23;;;11.80;97.30;;;;;;5050007;28;20422;-87
2022/11/15 09:45:12;;;;;;;2.50;2.10;;;11.90;97.30;;;;;;5039949;28;20442;-87
2022/11/15 09:48:17;;;;;;;7.10;3.20;;;12.00;97.30;;;;;;5053064;28;20422;-87
2022/11/15 09:50:49;;;;;;;3.43;2.10;;;12.10;97.30;;;;;;5064093;28;20433;-88
2022/11/15 09:53:31;;;;;;;4.00;1.80;;;12.20;97.30;;;;;;5055716;28;20437;-87
2022/11/15 09:56:19;;;;;;;2.50;2.30;;;12.30;97.30;;;;;;5048337;28;20454;-88
2022/11/15 09:59:05;;;;;;;2.83;2.13;;;12.40;97.30;;;;;;5032476;28;20824;-85
2022/11/15 10:01:40;;;;;;;4.07;2.47;;;12.50;97.30;;;;;;5048381;28;20468;-85
2022/11/15 10:04:06;;;;;;;4.07;1.47;;;12.70;97.30;;;;;;5031639;28;20454;-88
2022/11/15 10:06:36;;;;;;;4.97;2.83;;;12.70;97.30;;;;;;5034642;28;20450;-87
2022/11/15 10:09:11;;;;;;;2.50;2.30;;;12.80;97.30;;;;;;5035875;28;20211;-87
2022/11/15 10:11:37;;;;;;;1.97;1.83;;;12.90;97.30;;;;;;5050192;28;20433;-87
2022/11/15 10:14:11;;;;;;;2.10;1.77;;;12.90;97.30;;;;;;5031191;28;20462;-87
2022/11/15 10:16:45;;;;;;;5.07;2.90;;;13.00;97.00;;;;;;5052807;28;20414;-87
2022/11/15 10:19:26;;;;;;;3.20;3.07;;;13.10;97.00;;;;;;5027088;28;20423;-89
2022/11/15 10:22:04;;;;;;;3.03;1.70;;;13.20;96.60;;;;;;5049872;28;20711;-88
2022/11/15 10:24:39;;;;;;;7.40;2.20;;;13.30;96.60;;;;;;5049984;28;20415;-87
2022/11/15 10:27:12;;;;;;;1.60;1.50;;;13.40;95.80;;;;;;5049415;28;20418;-87
2022/11/15 10:29:44;;;;;;;1.97;1.87;;;13.50;95.80;;;;;;5077812;22;20532;-88
2022/11/15 10:32:12;;;;;;;2.00;1.93;;;13.70;95.50;;;;;;5064708;28;20421;-87
2022/11/15 10:34:40;;;;;;;3.27;2.17;;;13.80;95.50;;;;;;5068035;28;20438;-86
2022/11/15 10:37:05;;;;;;;4.17;1.70;;;13.90;95.40;;;;;;5048197;28;20461;-88
2022/11/15 10:39:33;;;;;;;4.60;3.20;;;13.90;95.60;;;;;;5050002;28;20469;-87
2022/11/15 10:42:16;;;;;;;4.10;2.53;;;14.00;95.60;;;;;;5055190;28;20172;-90
2022/11/15 10:44:43;;;;;;;2.13;1.83;;;14.00;95.30;;;;;;5046556;28;20430;-88
2022/11/15 10:47:38;;;;;;;3.00;1.87;;;14.10;96.20;;;;;;5040297;28;20411;-88
2022/11/15 10:50:24;;;;;;;1.60;1.40;;;14.20;96.10;;;;;;5011069;28;20434;-84
2022/11/15 10:52:50;;;;;;;1.70;1.60;;;14.40;95.70;;;;;;5030823;28;21169;-88
2022/11/15 10:55:15;;;;;;;1.77;1.70;;;14.50;95.60;;;;;;5046295;28;20553;-88
2022/11/15 10:57:52;;;;;;;4.10;2.47;;;14.60;94.80;;;;;;5035806;28;20206;-83
2022/11/15 11:00:20;;;;;;;11.40;3.13;;;14.80;94.00;;;;;;5047474;28;20829;-88
2022/11/15 11:02:55;;;;;;;1.83;1.73;;;14.90;94.70;;;;;;5050791;28;20410;-89
2022/11/15 11:05:41;;;;;;;2.40;2.20;;;14.90;93.30;;;;;;5022056;28;20922;-83
2022/11/15 11:08:09;;;;;;;2.00;1.77;;;15.00;93.40;;;;;;5027487;28;20430;-85
2022/11/15 11:10:35;;;;;;;2.03;1.47;;;15.20;93.80;;;;;;5049322;28;20431;-89
2022/11/15 11:13:27;;;;;;;3.13;2.60;;;15.30;93.30;;;;;;5035135;28;20825;-89
2022/11/15 11:16:13;;;;;;;1.77;1.67;;;15.40;93.20;;;;;;5031580;28;20242;-86
2022/11/15 11:19:00;;;;;;;1.67;1.30;;;15.50;92.70;;;;;;5018865;28;20436;-88
2022/11/15 11:21:55;;;;;;;1.90;1.53;;;15.50;92.10;;;;;;5031997;28;20494;-88
2022/11/15 11:24:40;;;;;;;1.47;1.37;;;15.60;92.40;;;;;;5013144;28;20450;-88
2022/11/15 11:27:39;;;;;;;1.73;1.63;;;15.70;92.50;;;;;;5043480;28;20430;-88
2022/11/15 11:30:29;;;;;;;2.77;2.40;;;15.80;92.10;;;;;;5034263;28;20458;-88
2022/11/15 11:33:09;;;;;;;5.23;2.53;;;15.80;91.60;;;;;;5034241;28;20421;-88
2022/11/15 11:35:49;;;;;;;3.80;2.00;;;15.80;91.10;;;;;;5033335;28;20940;-87
2022/11/15 11:38:44;;;;;;;4.13;2.70;;;15.80;91.00;;;;;;5030206;28;20401;-83
2022/11/15 11:41:22;;;;;;;2.63;2.47;;;15.80;91.10;;;;;;5018455;28;20844;-83
2022/11/15 11:44:16;;;;;;;1.30;1.20;;;15.80;91.70;;;;;;5071747;28;20558;-84
2022/11/15 11:46:48;;;;;;;1.53;1.47;;;15.90;90.60;;;;;;5023680;28;20418;-88
2022/11/15 11:49:42;;;;;;;2.20;1.73;;;16.00;90.40;;;;;;5034827;28;20430;-83
2022/11/15 11:52:30;;;;;;;3.80;2.20;;;16.10;90.60;;;;;;5063389;28;20418;-87
2022/11/15 11:55:15;;;;;;;2.17;2.00;;;16.20;90.10;;;;;;5021752;28;21047;-89
2022/11/15 11:57:57;;;;;;;2.73;1.93;;;16.30;90.60;;;;;;5033734;28;20533;-88
2022/11/15 12:00:27;;;;;;;2.50;1.80;;;16.40;90.10;;;;;;5032705;28;20430;-87
2022/11/15 12:03:13;;;;;;;1.63;1.53;;;16.50;89.90;;;;;;5063077;28;20417;-87
2022/11/15 12:05:54;;;;;;;2.53;2.13;;;16.70;89.00;;;;;;5031018;28;20452;-89
2022/11/15 12:08:53;;;;;;;2.03;1.20;;;16.80;88.00;;;;;;5035289;28;20425;-86
2022/11/15 12:11:22;;;;;;;4.93;3.20;;;17.00;88.20;;;;;;5037831;28;20449;-89
2022/11/15 12:13:53;;;;;;;1.67;1.57;;;16.90;88.10;;;;;;5032437;28;20414;-88
2022/11/15 12:16:27;;;;;;;2.13;2.00;;;17.00;88.10;;;;;;5041725;28;20421;-85
2022/11/15 12:18:55;;;;;;;3.67;2.40;;;17.00;87.50;;;;;;5035197;28;20693;-88
2022/11/15 12:21:36;;;;;;;6.47;2.30;;;17.00;87.80;;;;;;5046666;28;20413;-83
2022/11/15 12:24:09;;;;;;;10.07;3.13;;;17.00;88.50;;;;;;5036728;28;20920;-89
2022/11/15 12:26:45;;;;;;;2.07;1.50;;;17.00;87.80;;;;;;5057257;28;20411;-88
2022/11/15 12:29:39;;;;;;;1.93;1.83;;;17.00;88.00;;;;;;5060588;28;20866;-88
2022/11/15 12:32:14;;;;;;;1.67;1.60;;;17.10;88.40;;;;;;5047537;28;20406;-83
2022/11/15 12:34:46;;;;;;;1.40;1.37;;;17.40;88.10;;;;;;5045720;28;20461;-90
2022/11/15 12:37:40;;;;;;;3.43;1.83;;;17.60;87.60;;;;;;5059388;28;20928;-87
2022/11/15 12:40:08;;;;;;;1.50;1.40;;;17.80;87.10;;;;;;5048251;28;20454;-88
2022/11/15 12:42:55;;;;;;;1.53;1.40;;;18.00;86.10;;;;;;5031889;28;20944;-87
2022/11/15 12:45:30;;;;;;;2.43;2.20;;;18.10;85.70;;;;;;5043686;28;20422;-89
2022/11/15 12:48:17;;;;;;;1.87;1.77;;;18.20;84.70;;;;;;5061155;28;20850;-86
2022/11/15 12:50:55;;;;;;;1.77;1.70;;;18.20;84.00;;;;;;5041628;28;20564;-87
2022/11/15 12:53:27;;;;;;;1.50;1.40;;;18.20;84.40;;;;;;5047166;28;20786;-86
2022/11/15 12:56:11;;;;;;;1.40;1.10;;;18.10;84.60;;;;;;5042700;28;20528;-87
2022/11/15 12:58:59;;;;;;;1.10;1.00;;;18.20;84.40;;;;;;5064077;28;20877;-87
2022/11/15 13:01:34;;;;;;;1.40;1.30;;;18.30;83.80;;;;;;5045908;28;20421;-86
2022/11/15 13:04:11;;;;;;;1.97;1.73;;;18.40;83.00;;;;;;5044803;28;20429;-86
2022/11/15 13:06:43;;;;;;;1.67;1.43;;;18.50;83.60;;;;;;5047290;28;20504;-85
2022/11/15 13:09:33;;;;;;;3.73;2.40;;;18.60;83.80;;;;;;5051243;28;20457;-87
2022/11/15 13:12:04;;;;;;;1.97;1.57;;;18.70;82.80;;;;;;5029191;28;20414;-84
2022/11/15 13:14:51;;;;;;;1.23;1.13;;;18.80;83.30;;;;;;5044969;28;20523;-83
2022/11/15 13:17:21;;;;;;;1.50;1.40;;;18.90;82.30;;;;;;5043013;28;20429;-86
2022/11/15 13:20:07;;;;;;;1.87;1.77;;;19.00;82.30;;;;;;5037447;28;20445;-87
2022/11/15 13:22:51;;;;;;;2.30;2.00;;;19.00;81.80;;;;;;5039243;28;20430;-87
2022/11/15 13:25:19;;;;;;;1.77;1.40;;;19.10;82.60;;;;;;5059519;28;20533;-89
2022/11/15 13:27:49;;;;;;;1.40;1.37;;;19.10;82.80;;;;;;5043665;28;20800;-87
2022/11/15 13:30:20;;;;;;;1.20;1.10;;;19.00;82.50;;;;;;5059610;28;20504;-88
2022/11/15 13:32:46;;;;;;;2.03;1.93;;;19.00;83.00;;;;;;5045414;28;20417;-90
2022/11/15 13:35:29;;;;;;;2.50;1.70;;;18.90;83.20;;;;;;5067985;28;20884;-87
2022/11/15 13:37:55;;;;;;;1.70;1.27;;;18.90;83.60;;;;;;5016973;28;20427;-88
2022/11/15 13:40:34;;;;;;;2.23;1.93;;;18.70;83.70;;;;;;5042354;28;20483;-86
2022/11/15 13:42:59;;;;;;;1.67;1.53;;;18.70;84.10;;;;;;5043781;28;20406;-85
2022/11/15 13:45:26;;;;;;;2.50;2.23;;;18.70;84.30;;;;;;5037290;28;20420;-89
2022/11/15 13:47:57;;;;;;;1.57;1.50;;;18.60;84.40;;;;;;5036512;28;20180;-85